createdAt,value
2018-08-09T08:32:54.687Z,9.38
2018-08-09T08:35:27.094Z,10.65
2018-08-09T08:37:59.761Z,7.92
2018-08-09T08:40:32.414Z,9.58
2018-08-09T08:43:05.051Z,5.72
2018-08-09T08:45:37.507Z,8.08
2018-08-09T08:48:09.911Z,7.00
2018-08-09T08:50:42.325Z,8.55
2018-08-09T08:53:14.740Z,6.75
2018-08-09T08:55:47.152Z,6.92
2018-08-09T08:58:19.570Z,9.40
2018-08-09T09:00:52.058Z,8.90
2018-08-09T09:03:24.414Z,8.88
2018-08-09T09:05:56.891Z,9.33
2018-08-09T09:08:29.366Z,10.35
2018-08-09T09:11:02.121Z,8.25
2018-08-09T09:13:34.879Z,8.58
2018-08-09T09:16:07.299Z,9.03
2018-08-09T09:18:40.553Z,7.80
2018-08-09T09:21:12.982Z,7.25
2018-08-09T09:23:45.707Z,6.83
2018-08-09T09:26:18.428Z,8.98
2018-08-09T09:28:51.163Z,8.50
2018-08-09T09:31:23.888Z,9.33
2018-08-09T09:33:56.633Z,9.93
2018-08-09T09:36:29.047Z,9.53
2018-08-09T09:39:01.462Z,6.70
2018-08-09T09:41:33.909Z,12.37
2018-08-09T09:44:06.359Z,8.05
2018-08-09T09:46:38.785Z,7.37
2018-08-09T09:49:11.198Z,6.62
2018-08-09T09:51:43.638Z,9.35
2018-08-09T09:54:16.037Z,8.68
2018-08-09T09:56:48.730Z,7.85
2018-08-09T09:59:21.144Z,10.90
2018-08-09T10:01:53.577Z,8.93
2018-08-09T10:04:26.529Z,9.10
2018-08-09T10:06:59.289Z,10.23
2018-08-09T10:09:31.653Z,7.90
2018-08-09T10:12:04.078Z,7.00
2018-08-09T10:14:36.501Z,8.78
2018-08-09T10:17:09.032Z,8.75
2018-08-09T10:19:41.479Z,9.08
2018-08-09T10:22:14.389Z,7.33
2018-08-09T10:24:46.864Z,8.70
2018-08-09T10:27:19.338Z,9.95
2018-08-09T10:29:52.025Z,11.63
2018-08-09T10:32:24.402Z,9.75
2018-08-09T10:34:56.819Z,12.55
2018-08-09T10:37:29.244Z,12.20
2018-08-09T10:40:01.707Z,11.75
2018-08-09T10:42:34.391Z,12.35
2018-08-09T10:45:06.862Z,8.08
2018-08-09T10:47:39.334Z,7.58
2018-08-09T10:50:11.722Z,10.58
2018-08-09T10:52:44.145Z,9.28
2018-08-09T10:55:16.537Z,13.40
2018-08-09T10:57:48.945Z,11.43
2018-08-09T11:00:21.337Z,8.05
2018-08-09T11:02:54.388Z,10.30
2018-08-09T11:05:26.769Z,9.15
2018-08-09T11:07:59.204Z,8.58
2018-08-09T11:10:31.909Z,9.78
2018-08-09T11:13:04.309Z,11.90
2018-08-09T11:15:37.023Z,11.63
2018-08-09T11:18:09.719Z,8.43
2018-08-09T11:20:42.420Z,9.55
2018-08-09T11:23:15.069Z,7.95
2018-08-09T11:25:47.471Z,11.83
2018-08-09T11:28:20.150Z,10.48
2018-08-09T11:30:52.545Z,15.38
2018-08-09T11:33:24.953Z,11.15
2018-08-09T11:35:57.365Z,9.90
2018-08-09T11:38:29.761Z,9.13
2018-08-09T11:41:02.419Z,13.50
2018-08-09T11:43:35.169Z,9.30
2018-08-09T11:46:07.578Z,8.95
2018-08-09T11:48:40.323Z,24.43
2018-08-09T11:51:12.737Z,20.25
2018-08-09T11:53:45.161Z,11.53
2018-08-09T11:56:17.642Z,16.93
2018-08-09T11:58:50.041Z,10.82
2018-08-09T12:01:22.505Z,11.60
2018-08-09T12:03:55.168Z,12.85
2018-08-09T12:06:27.582Z,12.45
2018-08-09T12:09:00.250Z,11.35
2018-08-09T12:11:32.677Z,11.78
2018-08-09T12:14:05.397Z,18.15
2018-08-09T12:16:38.037Z,12.70
2018-08-09T12:19:10.555Z,16.10
2018-08-09T12:21:42.963Z,14.07
2018-08-09T12:24:15.533Z,8.10
2018-08-09T12:26:48.208Z,19.42
2018-08-09T12:29:20.646Z,15.58
2018-08-09T12:31:53.333Z,11.57
2018-08-09T12:34:26.085Z,11.85
2018-08-09T12:36:58.494Z,14.87
2018-08-09T12:39:30.913Z,9.18
2018-08-09T12:42:03.332Z,16.97
2018-08-09T12:44:36.115Z,11.53
2018-08-09T12:47:08.864Z,12.03
2018-08-09T12:49:41.287Z,11.10
2018-08-09T12:52:13.702Z,14.30
2018-08-09T12:54:46.393Z,10.05
2018-08-09T12:57:19.053Z,10.00
2018-08-09T12:59:51.540Z,11.85
2018-08-09T13:02:24.213Z,15.23
2018-08-09T13:04:56.897Z,9.95
2018-08-09T13:07:29.410Z,11.60
2018-08-09T13:10:02.080Z,8.23
2018-08-09T13:12:34.707Z,8.00
2018-08-09T13:15:09.266Z,10.00
2018-08-09T13:17:42.653Z,14.70
2018-08-09T13:20:15.725Z,11.33
2018-08-09T13:22:48.127Z,14.13
2018-08-09T13:25:20.566Z,8.65
2018-08-09T13:27:53.286Z,10.53
2018-08-09T13:30:25.720Z,8.93
2018-08-09T13:32:58.444Z,12.95
2018-08-09T13:35:31.122Z,11.22
2018-08-09T13:38:03.561Z,11.95
2018-08-09T13:40:36.010Z,8.38
2018-08-09T13:43:08.423Z,9.93
2018-08-09T13:45:40.887Z,10.53
2018-08-09T13:48:13.293Z,11.43
2018-08-09T13:50:45.966Z,10.88
2018-08-09T13:53:18.645Z,11.50
2018-08-09T13:55:51.102Z,10.13
2018-08-09T13:58:23.820Z,9.88
2018-08-09T14:00:56.477Z,10.28
2018-08-09T14:03:29.176Z,15.80
2018-08-09T14:06:01.629Z,9.63
2018-08-09T14:08:34.057Z,6.70
2018-08-09T14:11:06.534Z,9.63
2018-08-09T14:13:39.052Z,8.60
2018-08-09T14:16:11.566Z,7.87
2018-08-09T14:18:43.978Z,11.03
2018-08-09T14:21:16.881Z,9.28
2018-08-09T14:23:49.309Z,9.20
2018-08-09T14:26:21.769Z,7.65
2018-08-09T14:28:54.510Z,8.58
2018-08-09T14:31:26.937Z,9.50
2018-08-09T14:33:59.361Z,5.20
2018-08-09T14:36:31.809Z,5.92
2018-08-09T14:39:07.873Z,7.90
2018-08-09T14:41:40.309Z,6.08
2018-08-09T14:44:12.763Z,6.92
2018-08-09T14:46:45.173Z,7.12
2018-08-09T14:49:17.683Z,5.58
2018-08-09T14:51:50.449Z,4.62
2018-08-09T14:54:22.889Z,4.55
2018-08-09T14:56:55.306Z,9.80
2018-08-09T14:59:27.738Z,6.17
2018-08-09T15:02:00.226Z,5.92
2018-08-09T15:04:32.732Z,7.10
2018-08-09T15:07:05.205Z,6.33
2018-08-09T15:09:37.680Z,8.40
2018-08-09T15:12:10.108Z,9.30
2018-08-09T15:14:42.533Z,7.33
2018-08-09T15:17:14.939Z,7.78
2018-08-09T15:19:47.361Z,9.23
2018-08-09T15:22:19.988Z,10.30
2018-08-09T15:24:52.413Z,9.28
2018-08-09T15:27:24.840Z,7.75
2018-08-09T15:29:57.267Z,10.03
2018-08-09T15:32:29.698Z,7.35
2018-08-09T15:35:02.114Z,7.95
2018-08-09T15:37:34.877Z,7.97
2018-08-09T15:40:08.055Z,3.83
2018-08-09T15:42:40.529Z,10.13
2018-08-09T15:45:13.651Z,10.18
2018-08-09T15:47:46.143Z,8.23
2018-08-09T15:50:18.493Z,6.35
2018-08-09T15:52:50.897Z,10.95
2018-08-09T15:55:23.310Z,9.63
2018-08-09T15:57:55.721Z,14.78
2018-08-09T16:00:28.163Z,5.15
2018-08-09T16:03:00.659Z,5.78
2018-08-09T16:05:33.317Z,8.40
2018-08-09T16:08:05.746Z,5.20
2018-08-09T16:10:38.389Z,5.20
2018-08-09T16:13:10.794Z,7.50
2018-08-09T16:15:43.217Z,7.90
2018-08-09T16:18:15.641Z,7.80
2018-08-09T16:20:48.060Z,9.80
2018-08-09T16:23:20.468Z,7.47
2018-08-09T16:25:52.889Z,7.25
2018-08-09T16:28:25.292Z,6.45
2018-08-09T16:30:57.709Z,9.48
2018-08-09T16:33:30.245Z,5.25
2018-08-09T16:36:02.719Z,7.12
2018-08-09T16:38:35.113Z,6.75
2018-08-09T16:41:07.513Z,6.47
2018-08-09T16:43:39.937Z,6.67
2018-08-09T16:46:12.676Z,5.35
2018-08-09T16:48:45.089Z,9.23
2018-08-09T16:51:17.517Z,8.78
2018-08-09T16:53:50.210Z,6.60
2018-08-09T16:56:23.265Z,8.25
2018-08-09T16:58:55.637Z,7.28
2018-08-09T17:01:28.057Z,7.78
2018-08-09T17:04:00.470Z,6.53
2018-08-09T17:06:32.886Z,3.90
2018-08-09T17:09:08.981Z,5.62
2018-08-09T17:11:41.736Z,6.33
2018-08-09T17:14:14.165Z,4.87
2018-08-09T17:16:46.810Z,5.62
2018-08-09T17:19:19.206Z,5.58
2018-08-09T17:21:52.243Z,3.67
2018-08-09T17:24:24.949Z,3.42
2018-08-09T17:26:57.366Z,2.22
2018-08-09T17:29:29.827Z,4.65
2018-08-09T17:32:02.268Z,2.77
2018-08-09T17:34:34.700Z,4.58
2018-08-09T17:37:07.105Z,2.40
2018-08-09T17:39:39.514Z,5.70
2018-08-09T17:42:11.950Z,4.08
2018-08-09T17:44:44.365Z,5.53
2018-08-09T17:47:17.086Z,3.98
2018-08-09T17:49:49.507Z,4.70
2018-08-09T17:52:22.383Z,4.25
2018-08-09T17:54:54.801Z,9.38
2018-08-09T17:57:27.225Z,3.65
2018-08-09T17:59:59.687Z,4.83
2018-08-09T18:02:32.111Z,4.03
2018-08-09T18:05:05.763Z,4.92
2018-08-09T18:07:38.288Z,4.62
2018-08-09T18:10:15.904Z,8.33
2018-08-09T18:12:48.370Z,3.35
2018-08-09T18:15:21.189Z,6.22
2018-08-09T18:17:53.693Z,3.75
2018-08-09T18:20:26.114Z,5.15
2018-08-09T18:22:58.925Z,4.60
2018-08-09T18:25:31.704Z,4.80
2018-08-09T18:28:04.375Z,9.93
2018-08-09T18:30:37.370Z,4.97
2018-08-09T18:33:09.825Z,3.13
2018-08-09T18:35:42.517Z,2.50
2018-08-09T18:38:14.966Z,12.50
2018-08-09T18:40:47.373Z,7.80
2018-08-09T18:43:19.835Z,4.78
2018-08-09T18:45:52.481Z,3.07
2018-08-09T18:48:25.192Z,5.80
2018-08-09T18:50:57.609Z,4.30
2018-08-09T18:53:30.078Z,3.97
2018-08-09T18:56:02.688Z,3.90
2018-08-09T18:58:35.370Z,3.67
2018-08-09T19:01:08.486Z,1.97
2018-08-09T19:03:41.238Z,3.83
2018-08-09T19:06:13.677Z,4.47
2018-08-09T19:08:46.118Z,3.73
2018-08-09T19:11:18.529Z,3.97
2018-08-09T19:13:50.961Z,2.97
2018-08-09T19:16:23.388Z,5.47
2018-08-09T19:18:55.905Z,7.20
2018-08-09T19:21:28.313Z,8.13
2018-08-09T19:24:01.057Z,8.40
2018-08-09T19:26:33.485Z,3.60
2018-08-09T19:29:06.214Z,3.20
2018-08-09T19:31:38.891Z,3.67
2018-08-09T19:34:11.568Z,3.80
2018-08-09T19:36:44.067Z,3.17
2018-08-09T19:39:16.565Z,4.57
2018-08-09T19:41:48.997Z,3.97
2018-08-09T19:44:21.734Z,2.87
2018-08-09T19:46:54.453Z,4.87
2018-08-09T19:49:26.875Z,5.67
2018-08-09T19:51:59.367Z,2.97
2018-08-09T19:54:31.830Z,3.93
2018-08-09T19:57:04.306Z,3.60
2018-08-09T19:59:36.770Z,5.07
2018-08-09T20:02:09.231Z,3.50
2018-08-09T20:04:41.992Z,3.40
2018-08-09T20:07:14.434Z,5.00
2018-08-09T20:09:47.094Z,2.80
2018-08-09T20:12:19.523Z,2.30
2018-08-09T20:14:51.971Z,3.80
2018-08-09T20:17:24.440Z,2.43
2018-08-09T20:19:56.870Z,2.13
2018-08-09T20:22:29.365Z,5.30
2018-08-09T20:25:01.991Z,2.87
2018-08-09T20:27:34.578Z,4.07
2018-08-09T20:30:11.258Z,3.97
2018-08-09T20:32:43.685Z,3.60
2018-08-09T20:35:20.090Z,4.23
2018-08-09T20:37:52.569Z,4.53
2018-08-09T20:40:24.986Z,2.33
2018-08-09T20:42:57.413Z,4.13
2018-08-09T20:45:29.839Z,4.13
2018-08-09T20:48:02.295Z,3.83
2018-08-09T20:50:34.686Z,4.10
2018-08-09T20:53:07.121Z,6.40
2018-08-09T20:55:39.604Z,3.33
2018-08-09T20:58:13.142Z,2.83
2018-08-09T21:00:46.140Z,2.57
2018-08-09T21:03:18.694Z,2.40
2018-08-09T21:05:51.266Z,5.00
2018-08-09T21:08:23.962Z,2.67
2018-08-09T21:10:56.445Z,5.00
2018-08-09T21:13:28.913Z,4.60
2018-08-09T21:16:01.390Z,10.10
2018-08-09T21:18:34.141Z,6.43
2018-08-09T21:21:06.805Z,18.00
2018-08-09T21:23:39.234Z,11.70
2018-08-09T21:26:11.758Z,20.90
2018-08-09T21:28:44.291Z,16.17
2018-08-09T21:31:17.086Z,16.53
2018-08-09T21:33:49.642Z,24.00
2018-08-09T21:36:22.099Z,17.60
2018-08-09T21:38:54.903Z,6.13
2018-08-09T21:41:27.742Z,8.23
2018-08-09T21:44:00.229Z,4.07
2018-08-09T21:46:32.717Z,5.87
2018-08-09T21:49:05.402Z,7.83
2018-08-09T21:51:37.845Z,10.20
2018-08-09T21:54:10.542Z,4.33
2018-08-09T21:56:42.995Z,6.67
2018-08-09T21:59:15.447Z,9.07
2018-08-09T22:01:47.900Z,8.17
2018-08-09T22:04:20.421Z,4.33
2018-08-09T22:06:53.170Z,8.10
2018-08-09T22:09:25.621Z,8.63
2018-08-09T22:11:58.055Z,9.13
2018-08-09T22:14:30.490Z,4.63
2018-08-09T22:17:02.897Z,7.00
2018-08-09T22:19:35.370Z,9.67
2018-08-09T22:22:07.791Z,12.70
2018-08-09T22:24:40.641Z,10.07
2018-08-09T22:27:13.204Z,12.73
2018-08-09T22:29:45.660Z,10.60
2018-08-09T22:32:18.511Z,11.37
2018-08-09T22:34:50.997Z,12.57
2018-08-09T22:37:23.450Z,12.43
2018-08-09T22:39:56.201Z,7.63
2018-08-09T22:42:28.875Z,8.50
2018-08-09T22:45:01.492Z,5.80
2018-08-09T22:47:34.018Z,8.83
2018-08-09T22:50:06.601Z,5.20
2018-08-09T22:52:39.027Z,8.37
2018-08-09T22:55:11.506Z,7.10
2018-08-09T22:57:43.929Z,4.77
2018-08-09T23:00:18.830Z,3.20
2018-08-09T23:02:51.253Z,4.33
2018-08-09T23:05:23.744Z,6.87
2018-08-09T23:07:56.177Z,3.20
2018-08-09T23:10:28.596Z,3.17
2018-08-09T23:13:01.034Z,3.80
2018-08-09T23:15:33.517Z,2.70
2018-08-09T23:18:06.090Z,3.57
2018-08-09T23:20:38.565Z,3.43
2018-08-09T23:23:10.950Z,4.70
2018-08-09T23:25:43.354Z,2.43
2018-08-09T23:28:16.283Z,2.17
2018-08-09T23:30:48.698Z,3.30
2018-08-09T23:33:21.588Z,1.53
2018-08-09T23:35:54.007Z,2.03
2018-08-09T23:38:26.389Z,3.43
2018-08-09T23:40:58.806Z,3.13
2018-08-09T23:43:31.195Z,2.33
2018-08-09T23:46:03.885Z,3.87
2018-08-09T23:48:36.274Z,2.87
2018-08-09T23:51:08.666Z,3.63
2018-08-09T23:53:41.051Z,3.17
2018-08-09T23:56:13.465Z,1.87
2018-08-09T23:58:45.853Z,1.93
